Time;durP1;ratioP1;P1;durP2;ratioP2;P2;SDS_P1;SDS_P2;PMS_P1;PMS_P2;Temp;Humidity;BMP_temperature;BMP_pressure;BME280_temperature;BME280_humidity;BME280_pressure;Samples;Min_cycle;Max_cycle;Signal;HPM_P1;HPM_P2
2022/05/13 00:00:28;;;;;;;1.50;1.00;;;14.60;90.20;;;;;;5028581;28;20467;-76
2022/05/13 00:02:55;;;;;;;1.50;1.10;;;14.60;90.60;;;;;;5021048;28;20892;-76
2022/05/13 00:05:24;;;;;;;1.43;1.00;;;14.60;90.20;;;;;;5029440;28;20962;-76
2022/05/13 00:07:51;;;;;;;1.50;1.10;;;14.50;91.50;;;;;;5025105;28;20545;-76
2022/05/13 00:10:18;;;;;;;1.47;1.00;;;14.50;92.10;;;;;;5029486;28;20898;-76
2022/05/13 00:12:45;;;;;;;1.50;1.10;;;14.50;91.60;;;;;;5027928;28;20916;-76
2022/05/13 00:15:16;;;;;;;1.50;1.00;;;14.50;92.20;;;;;;5029012;28;20880;-76
2022/05/13 00:17:43;;;;;;;1.50;1.00;;;14.40;91.70;;;;;;5028641;28;20483;-76
2022/05/13 00:20:11;;;;;;;1.47;1.03;;;14.40;92.00;;;;;;5026589;28;20494;-76
2022/05/13 00:22:45;;;;;;;1.47;1.00;;;14.30;92.00;;;;;;5021123;28;20547;-76
2022/05/13 00:25:20;;;;;;;1.40;1.00;;;14.30;92.40;;;;;;5016768;28;20546;-76
2022/05/13 00:27:47;;;;;;;1.50;1.10;;;14.30;92.90;;;;;;5025692;28;20486;-76
2022/05/13 00:30:14;;;;;;;1.50;1.00;;;14.20;92.40;;;;;;5028933;28;20463;-76
2022/05/13 00:32:41;;;;;;;1.43;1.00;;;14.20;92.50;;;;;;5047097;28;20524;-76
2022/05/13 00:35:09;;;;;;;1.50;1.00;;;14.20;92.30;;;;;;5047230;28;20474;-76
2022/05/13 00:37:35;;;;;;;1.43;1.00;;;14.20;92.60;;;;;;5041640;28;20490;-76
2022/05/13 00:40:05;;;;;;;1.50;1.00;;;14.30;92.60;;;;;;5048327;28;20462;-76
2022/05/13 00:42:32;;;;;;;1.50;1.00;;;14.30;91.70;;;;;;5046062;28;20465;-76
2022/05/13 00:44:59;;;;;;;1.50;1.00;;;14.30;91.30;;;;;;5045142;28;20848;-76
2022/05/13 00:47:26;;;;;;;1.50;1.03;;;14.20;91.60;;;;;;5048132;28;20489;-76
2022/05/13 00:49:55;;;;;;;1.47;1.00;;;14.20;91.70;;;;;;5048573;28;20469;-76
2022/05/13 00:52:22;;;;;;;1.47;1.00;;;14.20;91.10;;;;;;5047238;28;20517;-76
2022/05/13 00:54:49;;;;;;;1.47;1.00;;;14.10;90.80;;;;;;5042453;28;20845;-76
2022/05/13 00:57:18;;;;;;;1.50;1.10;;;14.10;91.20;;;;;;5036441;28;20522;-75
2022/05/13 00:59:47;;;;;;;1.50;1.10;;;14.10;91.60;;;;;;5045794;28;20462;-76
2022/05/13 01:02:13;;;;;;;1.43;1.00;;;14.10;90.90;;;;;;5047162;28;20454;-76
2022/05/13 01:04:40;;;;;;;1.50;1.10;;;14.00;90.80;;;;;;5048599;28;20466;-76
2022/05/13 01:07:11;;;;;;;1.50;1.03;;;14.00;91.20;;;;;;5035334;28;20565;-76
2022/05/13 01:09:42;;;;;;;1.50;1.10;;;13.90;91.10;;;;;;5047032;28;20465;-76
2022/05/13 01:12:20;;;;;;;1.43;1.00;;;13.90;90.70;;;;;;5038987;28;21021;-76
2022/05/13 01:14:56;;;;;;;1.50;1.03;;;13.80;91.00;;;;;;5048125;28;20866;-76
2022/05/13 01:20:22;;;;;;;1.50;1.00;;;13.80;90.50;;;;;;5022845;28;20505;-76
2022/05/13 01:22:53;;;;;;;1.50;1.10;;;13.70;90.70;;;;;;5046895;28;20450;-76
2022/05/13 01:25:24;;;;;;;1.43;1.00;;;13.70;90.10;;;;;;5039058;28;20458;-76
2022/05/13 01:27:52;;;;;;;1.47;1.00;;;13.70;90.40;;;;;;5042142;28;20569;-76
2022/05/13 01:30:21;;;;;;;1.50;1.10;;;13.60;90.00;;;;;;5048345;28;21267;-76
2022/05/13 01:32:48;;;;;;;1.47;1.00;;;13.60;90.40;;;;;;5030126;28;20478;-76
2022/05/13 01:35:15;;;;;;;1.47;1.00;;;13.60;90.40;;;;;;5034778;28;20466;-76
2022/05/13 01:37:42;;;;;;;1.50;1.07;;;13.50;90.70;;;;;;5044135;28;20877;-76
2022/05/13 01:40:11;;;;;;;1.47;1.00;;;13.50;90.20;;;;;;5036132;28;20466;-76
2022/05/13 01:42:38;;;;;;;1.50;1.20;;;13.40;90.20;;;;;;5046068;28;20458;-76
2022/05/13 01:45:07;;;;;;;1.47;1.00;;;13.40;90.30;;;;;;5047581;28;20459;-76
2022/05/13 01:47:34;;;;;;;1.50;1.10;;;13.40;90.90;;;;;;5046909;28;21252;-76
2022/05/13 01:50:02;;;;;;;1.50;1.00;;;13.30;90.60;;;;;;5044521;28;20561;-76
2022/05/13 01:52:28;;;;;;;1.50;1.00;;;13.30;91.00;;;;;;5045866;28;20479;-76
2022/05/13 01:54:55;;;;;;;1.50;1.00;;;13.20;91.00;;;;;;5042919;28;20478;-76
2022/05/13 01:57:23;;;;;;;1.50;1.00;;;13.20;91.30;;;;;;5039461;28;20489;-76
2022/05/13 01:59:50;;;;;;;1.43;1.00;;;13.10;91.00;;;;;;5047114;28;20466;-76
2022/05/13 02:02:17;;;;;;;1.50;1.10;;;13.10;91.40;;;;;;5041652;28;20457;-76
2022/05/13 02:04:42;;;;;;;1.50;1.10;;;13.00;91.70;;;;;;5046275;28;20470;-76
2022/05/13 02:07:09;;;;;;;1.50;1.00;;;13.00;91.20;;;;;;5047026;28;20459;-76
2022/05/13 02:09:36;;;;;;;1.50;1.00;;;13.00;91.40;;;;;;5050706;28;20212;-76
2022/05/13 02:12:03;;;;;;;1.50;1.00;;;13.00;91.70;;;;;;5048489;28;20537;-76
2022/05/13 02:14:31;;;;;;;1.43;1.00;;;13.00;92.00;;;;;;5044844;28;20461;-75
2022/05/13 02:16:58;;;;;;;1.43;1.07;;;12.90;91.90;;;;;;5050557;28;20461;-76
2022/05/13 02:19:24;;;;;;;1.50;1.00;;;12.90;92.20;;;;;;5050509;28;21099;-76
2022/05/13 02:21:51;;;;;;;1.47;1.00;;;12.80;92.20;;;;;;5049660;28;20469;-76
2022/05/13 02:24:18;;;;;;;1.47;1.10;;;12.80;92.30;;;;;;5046315;28;20876;-77
2022/05/13 02:26:45;;;;;;;1.50;1.10;;;12.70;92.70;;;;;;5045177;28;20470;-76
2022/05/13 02:29:12;;;;;;;1.47;1.03;;;12.70;92.70;;;;;;5046237;28;20494;-76
2022/05/13 02:31:40;;;;;;;1.47;1.10;;;12.70;93.00;;;;;;5049072;28;20466;-76
2022/05/13 02:34:07;;;;;;;1.47;1.00;;;12.60;92.70;;;;;;5050610;28;20492;-76
2022/05/13 02:36:34;;;;;;;1.50;1.00;;;12.60;92.70;;;;;;5041425;28;20489;-75
2022/05/13 02:39:00;;;;;;;1.50;1.10;;;12.60;92.80;;;;;;5056236;28;20480;-75
2022/05/13 02:41:27;;;;;;;1.50;1.10;;;12.60;92.90;;;;;;5046750;28;20463;-76
2022/05/13 02:43:56;;;;;;;1.50;1.10;;;12.60;92.70;;;;;;5051103;28;20689;-76
2022/05/13 02:46:24;;;;;;;1.43;1.00;;;12.50;92.40;;;;;;5048031;28;20467;-76
2022/05/13 02:48:52;;;;;;;1.50;1.00;;;12.50;92.90;;;;;;5049620;28;20494;-76
2022/05/13 02:51:20;;;;;;;1.50;1.10;;;12.50;92.80;;;;;;5048230;28;21099;-76
2022/05/13 02:53:47;;;;;;;1.47;1.00;;;12.50;92.60;;;;;;5048449;28;20494;-76
2022/05/13 02:56:15;;;;;;;1.50;1.10;;;12.50;92.60;;;;;;5037434;28;20466;-76
2022/05/13 02:58:42;;;;;;;1.50;1.00;;;12.50;92.60;;;;;;5048241;28;20864;-76
2022/05/13 03:01:11;;;;;;;1.43;1.00;;;12.40;92.60;;;;;;5046446;28;20458;-75
2022/05/13 03:03:39;;;;;;;1.50;1.13;;;12.40;92.80;;;;;;5046179;28;20458;-76
2022/05/13 03:06:08;;;;;;;1.50;1.07;;;12.40;92.60;;;;;;5049123;28;20462;-76
2022/05/13 03:08:34;;;;;;;1.50;1.00;;;12.30;92.40;;;;;;5045816;28;20482;-76
2022/05/13 03:11:02;;;;;;;1.47;1.10;;;12.30;92.50;;;;;;5043386;28;20532;-76
2022/05/13 03:13:29;;;;;;;1.50;1.10;;;12.30;92.70;;;;;;5039025;28;20526;-76
2022/05/13 03:16:01;;;;;;;1.47;1.10;;;12.20;92.70;;;;;;5048846;28;20468;-76
2022/05/13 03:18:28;;;;;;;1.50;1.10;;;12.20;92.50;;;;;;5047546;28;20482;-76
2022/05/13 03:20:55;;;;;;;1.50;1.30;;;12.20;92.00;;;;;;5047074;28;20466;-76
2022/05/13 03:23:23;;;;;;;1.50;1.17;;;12.20;92.10;;;;;;5046321;28;20873;-75
2022/05/13 03:25:50;;;;;;;1.47;1.03;;;12.10;92.30;;;;;;5043698;28;20466;-75
2022/05/13 03:28:17;;;;;;;1.47;1.10;;;12.10;92.00;;;;;;5042666;28;20482;-76
2022/05/13 03:30:44;;;;;;;1.50;1.00;;;12.10;92.00;;;;;;5046238;28;21824;-76
2022/05/13 03:33:11;;;;;;;1.50;1.10;;;12.10;92.00;;;;;;5044108;28;20562;-75
2022/05/13 03:35:39;;;;;;;1.50;1.10;;;12.10;91.90;;;;;;5041839;28;20489;-76
2022/05/13 03:38:06;;;;;;;1.47;1.10;;;12.10;91.80;;;;;;5048150;28;20526;-76
2022/05/13 03:40:35;;;;;;;1.50;1.10;;;12.00;91.80;;;;;;5048323;28;20907;-75
2022/05/13 03:43:02;;;;;;;1.50;1.10;;;12.00;91.80;;;;;;5048710;28;20937;-76
2022/05/13 03:45:30;;;;;;;1.50;1.10;;;12.00;91.80;;;;;;5048793;28;21042;-76
2022/05/13 03:47:57;;;;;;;1.43;1.10;;;12.00;92.10;;;;;;5048571;28;20489;-76
2022/05/13 03:50:24;;;;;;;1.60;1.30;;;12.00;92.00;;;;;;5044456;28;20473;-76
2022/05/13 03:52:50;;;;;;;1.47;1.00;;;12.00;91.80;;;;;;5046045;28;20515;-76
2022/05/13 03:55:18;;;;;;;1.50;1.10;;;11.90;92.00;;;;;;5043221;28;20467;-75
2022/05/13 03:57:46;;;;;;;1.50;1.20;;;11.90;92.10;;;;;;5044152;28;20482;-76
2022/05/13 04:00:15;;;;;;;1.43;1.10;;;11.90;92.50;;;;;;5048223;28;20470;-76
2022/05/13 04:02:42;;;;;;;1.50;1.10;;;11.90;92.60;;;;;;5045887;28;20461;-76
2022/05/13 04:10:41;;;;;;;1.50;1.20;;;11.90;92.60;;;;;;5043683;28;20442;-76
2022/05/13 04:16:06;;;;;;;2.40;2.20;;;12.00;92.70;;;;;;5047506;28;20454;-76
2022/05/13 04:18:36;;;;;;;1.50;1.10;;;12.00;92.30;;;;;;5048469;28;20517;-76
2022/05/13 04:21:04;;;;;;;1.50;1.10;;;12.00;92.30;;;;;;5045517;28;21157;-75
2022/05/13 04:23:32;;;;;;;1.47;1.10;;;12.00;92.30;;;;;;5032593;28;20494;-75
2022/05/13 04:25:59;;;;;;;1.50;1.10;;;12.00;92.10;;;;;;5039442;28;20455;-75
2022/05/13 04:28:27;;;;;;;1.43;1.10;;;12.10;92.60;;;;;;5041817;28;20496;-75
2022/05/13 04:30:54;;;;;;;1.50;1.10;;;12.10;92.10;;;;;;5040769;28;20524;-76
2022/05/13 04:33:21;;;;;;;1.50;1.10;;;12.20;92.20;;;;;;5040984;28;20498;-75
2022/05/13 04:35:48;;;;;;;1.47;1.03;;;12.20;92.10;;;;;;5031519;28;20466;-75
2022/05/13 04:38:14;;;;;;;1.50;1.10;;;12.30;91.80;;;;;;5061079;28;20493;-75
2022/05/13 04:40:41;;;;;;;1.47;1.00;;;12.30;91.80;;;;;;5031862;28;20463;-75
2022/05/13 04:43:07;;;;;;;1.50;1.10;;;12.30;92.20;;;;;;5037562;28;20467;-75
2022/05/13 04:45:35;;;;;;;1.47;1.00;;;12.30;92.20;;;;;;5042240;28;20632;-75
2022/05/13 04:48:17;;;;;;;1.43;1.00;;;12.40;92.10;;;;;;5039060;28;20230;-75
2022/05/13 04:50:48;;;;;;;1.40;1.00;;;12.40;91.90;;;;;;5039786;28;20982;-76
2022/05/13 04:53:18;;;;;;;1.50;1.10;;;12.40;92.20;;;;;;5042110;28;20518;-76
2022/05/13 04:55:45;;;;;;;1.50;1.10;;;12.40;91.80;;;;;;5036912;28;20467;-75
2022/05/13 04:58:12;;;;;;;1.50;1.00;;;12.50;92.60;;;;;;5041082;28;21126;-76
2022/05/13 05:00:40;;;;;;;1.47;1.00;;;12.50;92.30;;;;;;5042966;28;20474;-77
2022/05/13 05:03:07;;;;;;;1.47;1.00;;;12.60;92.10;;;;;;5029198;28;20615;-76
2022/05/13 05:05:35;;;;;;;1.47;1.00;;;12.60;92.10;;;;;;5040059;28;20466;-78
2022/05/13 05:08:02;;;;;;;1.47;1.00;;;12.50;92.70;;;;;;5045838;28;21070;-77
2022/05/13 05:10:29;;;;;;;1.47;1.07;;;12.50;92.90;;;;;;5046676;28;20462;-76
2022/05/13 05:12:57;;;;;;;1.47;1.10;;;12.60;92.90;;;;;;5046554;28;20473;-77
2022/05/13 05:15:25;;;;;;;1.50;1.10;;;12.60;92.80;;;;;;5041843;28;20819;-77
2022/05/13 05:17:53;;;;;;;1.50;1.00;;;12.60;92.90;;;;;;5041135;28;20478;-77
2022/05/13 05:20:21;;;;;;;1.47;1.10;;;12.70;93.10;;;;;;5043076;28;20473;-77
2022/05/13 05:22:48;;;;;;;1.50;1.07;;;12.70;93.50;;;;;;5038990;28;20470;-78
2022/05/13 05:25:15;;;;;;;1.50;1.00;;;12.90;93.50;;;;;;5037205;28;20470;-77
2022/05/13 05:27:42;;;;;;;1.47;1.00;;;13.00;93.00;;;;;;5037077;28;20498;-77
2022/05/13 05:30:12;;;;;;;1.47;1.00;;;13.30;92.70;;;;;;5037078;28;20467;-78
2022/05/13 05:32:39;;;;;;;1.50;1.10;;;13.50;92.30;;;;;;5037104;28;20462;-77
2022/05/13 05:35:11;;;;;;;1.43;1.00;;;13.70;91.60;;;;;;5030916;28;20502;-78
2022/05/13 05:37:38;;;;;;;1.50;1.00;;;13.90;91.00;;;;;;5036681;28;20880;-78
2022/05/13 05:40:07;;;;;;;1.47;1.00;;;14.10;90.50;;;;;;5045086;28;20466;-78
2022/05/13 05:42:33;;;;;;;1.47;1.00;;;14.30;89.50;;;;;;5037319;28;21113;-76
2022/05/13 05:45:01;;;;;;;1.50;1.00;;;14.50;88.90;;;;;;5039147;28;20493;-76
2022/05/13 05:47:28;;;;;;;1.50;1.10;;;14.50;88.60;;;;;;5034730;28;20615;-77
2022/05/13 05:49:54;;;;;;;1.50;1.00;;;14.50;88.40;;;;;;5039687;28;20462;-75
2022/05/13 05:52:23;;;;;;;1.50;1.00;;;14.50;88.70;;;;;;5036021;28;20466;-76
2022/05/13 05:57:34;;;;;;;1.47;1.00;;;14.40;88.70;;;;;;5029843;28;20663;-77
2022/05/13 06:00:01;;;;;;;1.47;1.00;;;14.40;89.10;;;;;;5040360;28;20462;-76
2022/05/13 06:02:28;;;;;;;1.47;1.00;;;14.40;89.30;;;;;;5035517;28;20470;-76
2022/05/13 06:04:55;;;;;;;1.50;1.10;;;14.50;89.50;;;;;;5041038;28;20466;-77
2022/05/13 06:07:26;;;;;;;1.43;1.00;;;14.70;88.80;;;;;;5040951;28;20486;-76
2022/05/13 06:09:53;;;;;;;1.47;1.00;;;14.90;88.80;;;;;;5038125;28;20474;-76
2022/05/13 06:12:21;;;;;;;1.50;1.10;;;15.00;88.20;;;;;;5031597;28;20469;-76
2022/05/13 06:14:48;;;;;;;1.50;1.00;;;15.20;88.00;;;;;;5039368;28;20482;-76
2022/05/13 06:17:15;;;;;;;1.50;1.00;;;15.60;87.80;;;;;;5038308;28;20471;-76
2022/05/13 06:19:42;;;;;;;1.50;0.97;;;15.90;86.70;;;;;;5046262;28;20478;-77
2022/05/13 06:22:08;;;;;;;1.50;1.00;;;16.30;85.70;;;;;;5044330;28;20870;-78
2022/05/13 06:24:37;;;;;;;1.50;1.00;;;16.70;84.80;;;;;;5046829;28;20458;-78
2022/05/13 06:27:05;;;;;;;1.47;0.90;;;17.00;83.00;;;;;;5037218;28;20463;-77
2022/05/13 06:29:32;;;;;;;1.47;0.90;;;17.20;82.40;;;;;;5048845;28;20492;-77
2022/05/13 06:31:59;;;;;;;1.43;0.90;;;17.50;81.60;;;;;;5046268;28;20462;-78
2022/05/13 06:34:26;;;;;;;1.43;0.90;;;17.80;81.50;;;;;;5048287;28;20513;-77
2022/05/13 06:36:53;;;;;;;1.47;0.90;;;18.10;80.70;;;;;;5049987;28;20470;-78
2022/05/13 06:39:20;;;;;;;2.13;1.30;;;18.30;79.90;;;;;;5051110;28;20486;-78
2022/05/13 06:41:48;;;;;;;1.47;0.90;;;18.50;78.60;;;;;;5045445;28;20463;-78
2022/05/13 06:44:18;;;;;;;1.47;1.00;;;18.70;78.00;;;;;;5041917;28;20546;-78
2022/05/13 06:46:45;;;;;;;1.50;0.90;;;18.90;78.30;;;;;;5044820;28;20466;-78
2022/05/13 06:49:14;;;;;;;1.50;0.90;;;19.10;77.70;;;;;;5051374;28;20517;-78
2022/05/13 06:51:41;;;;;;;1.47;0.90;;;19.40;76.50;;;;;;5049474;28;21352;-78
2022/05/13 06:54:09;;;;;;;1.50;0.90;;;19.50;75.70;;;;;;5042160;28;20523;-78
2022/05/13 06:56:39;;;;;;;1.50;0.90;;;19.50;75.20;;;;;;5040072;28;20467;-77
2022/05/13 06:59:08;;;;;;;1.40;0.90;;;19.60;75.90;;;;;;5049417;28;20486;-75
2022/05/13 07:01:36;;;;;;;1.43;0.90;;;19.70;75.30;;;;;;5031275;28;20530;-77
2022/05/13 07:04:02;;;;;;;1.47;0.90;;;19.70;74.80;;;;;;5048548;28;21016;-77
2022/05/13 07:06:29;;;;;;;1.50;0.90;;;19.80;74.60;;;;;;5048733;28;20469;-78
2022/05/13 07:08:56;;;;;;;1.43;0.90;;;20.10;75.00;;;;;;5048905;28;20485;-77
2022/05/13 07:11:23;;;;;;;1.40;0.90;;;20.30;74.10;;;;;;5043963;28;20466;-78
2022/05/13 07:13:50;;;;;;;1.47;0.90;;;20.50;73.60;;;;;;5043558;28;20823;-76
2022/05/13 07:16:19;;;;;;;1.47;0.90;;;20.80;73.40;;;;;;5044342;28;20468;-78
2022/05/13 07:18:46;;;;;;;1.50;1.10;;;20.90;72.10;;;;;;5042045;28;20486;-79
2022/05/13 07:21:14;;;;;;;1.50;0.90;;;21.00;72.50;;;;;;5047628;28;20565;-76
2022/05/13 07:23:41;;;;;;;1.43;0.90;;;21.00;71.90;;;;;;5046771;28;20466;-77
2022/05/13 07:26:08;;;;;;;1.50;0.90;;;21.10;72.60;;;;;;5038607;28;20466;-78
2022/05/13 07:28:35;;;;;;;1.47;0.90;;;21.40;72.20;;;;;;5046954;28;20501;-77
2022/05/13 07:31:02;;;;;;;1.50;1.00;;;21.60;71.60;;;;;;5051043;28;20462;-77
2022/05/13 07:33:30;;;;;;;1.50;0.90;;;21.80;69.90;;;;;;5049193;28;20463;-76
2022/05/13 07:35:58;;;;;;;1.47;0.87;;;21.80;70.20;;;;;;5049230;28;20459;-76
2022/05/13 07:38:24;;;;;;;1.50;0.80;;;22.00;69.70;;;;;;5043235;28;20540;-76
2022/05/13 07:43:35;;;;;;;1.50;0.90;;;22.00;69.00;;;;;;5041868;28;20453;-78
2022/05/13 07:46:03;;;;;;;1.47;0.90;;;22.00;69.70;;;;;;5048448;28;20459;-77
2022/05/13 07:48:31;;;;;;;1.47;0.90;;;21.90;69.60;;;;;;5047550;28;20644;-78
2022/05/13 07:50:58;;;;;;;1.47;0.80;;;21.80;69.70;;;;;;5048737;28;20879;-78
2022/05/13 07:53:24;;;;;;;1.50;0.90;;;21.80;68.90;;;;;;5048447;28;20532;-78
2022/05/13 07:55:53;;;;;;;1.47;0.90;;;21.80;69.30;;;;;;5034447;28;20483;-77
2022/05/13 07:58:19;;;;;;;1.47;0.90;;;21.90;69.00;;;;;;5045361;28;20501;-76
2022/05/13 08:00:47;;;;;;;1.47;0.90;;;21.90;69.10;;;;;;5048024;28;20471;-78
2022/05/13 08:03:16;;;;;;;1.43;0.90;;;22.00;69.70;;;;;;5043177;28;20462;-77
2022/05/13 08:05:46;;;;;;;1.43;0.80;;;22.10;68.70;;;;;;5047282;28;20462;-78
2022/05/13 08:08:15;;;;;;;1.43;0.80;;;22.20;68.40;;;;;;5044733;28;20486;-75
2022/05/13 08:10:46;;;;;;;1.50;0.90;;;22.10;68.80;;;;;;5048027;28;21094;-78
2022/05/13 08:13:13;;;;;;;1.40;0.80;;;22.10;68.50;;;;;;5047253;28;20462;-77
2022/05/13 08:15:40;;;;;;;1.47;0.90;;;22.00;68.90;;;;;;5048917;28;20513;-78
2022/05/13 08:18:07;;;;;;;1.50;1.10;;;21.90;68.60;;;;;;5035257;28;20557;-77
2022/05/13 08:20:35;;;;;;;1.40;0.90;;;21.70;69.60;;;;;;5048618;28;20466;-76
2022/05/13 08:23:04;;;;;;;1.47;0.90;;;21.70;69.50;;;;;;5046598;28;20454;-77
2022/05/13 08:25:31;;;;;;;1.50;0.80;;;21.70;69.70;;;;;;5034083;28;20501;-77
2022/05/13 08:27:59;;;;;;;1.43;0.90;;;21.80;69.90;;;;;;5043360;28;20529;-76
2022/05/13 08:30:26;;;;;;;1.47;0.90;;;21.90;69.20;;;;;;5046847;28;20466;-76
2022/05/13 08:32:53;;;;;;;1.47;0.80;;;21.90;69.80;;;;;;5046390;28;20466;-77
2022/05/13 08:35:21;;;;;;;1.40;0.90;;;21.90;69.50;;;;;;5047248;28;20486;-76
2022/05/13 08:37:50;;;;;;;1.43;0.90;;;22.00;69.30;;;;;;5041218;28;20559;-76
2022/05/13 08:40:30;;;;;;;1.43;0.80;;;22.00;69.70;;;;;;5053738;22;20593;-79
2022/05/13 08:42:57;;;;;;;1.50;1.00;;;22.00;69.10;;;;;;5030566;28;20465;-78
2022/05/13 08:45:24;;;;;;;1.40;0.90;;;22.20;69.30;;;;;;5034870;28;20535;-79
2022/05/13 08:47:56;;;;;;;1.50;0.90;;;22.30;69.20;;;;;;5036115;28;20451;-79
2022/05/13 08:50:33;;;;;;;1.47;0.80;;;22.40;68.90;;;;;;5038241;28;20603;-79
2022/05/13 08:53:11;;;;;;;1.47;0.90;;;22.50;68.40;;;;;;5031131;28;20460;-79
2022/05/13 08:55:46;;;;;;;1.43;0.80;;;22.70;67.40;;;;;;5030617;28;20587;-79
2022/05/13 08:58:18;;;;;;;1.50;1.20;;;22.60;67.40;;;;;;5025458;28;20466;-80
2022/05/13 09:00:49;;;;;;;1.47;0.80;;;22.60;67.20;;;;;;5034369;28;20548;-80
2022/05/13 09:03:35;;;;;;;1.50;1.17;;;22.60;67.00;;;;;;5033284;28;20471;-77
2022/05/13 09:06:05;;;;;;;1.43;0.90;;;22.70;67.00;;;;;;5030173;28;20470;-78
2022/05/13 09:08:35;;;;;;;1.43;0.90;;;22.70;67.60;;;;;;5037137;28;20459;-79
2022/05/13 09:11:17;;;;;;;1.43;0.90;;;22.70;67.60;;;;;;5039732;28;20459;-78
2022/05/13 09:13:56;;;;;;;1.43;0.90;;;22.80;67.60;;;;;;5039167;28;20467;-79
2022/05/13 09:16:31;;;;;;;1.47;0.90;;;22.70;67.70;;;;;;5029546;28;20494;-79
2022/05/13 09:19:03;;;;;;;1.43;0.90;;;22.70;67.50;;;;;;5036518;28;20570;-78
2022/05/13 09:21:30;;;;;;;1.40;0.90;;;22.90;67.60;;;;;;5035673;28;20462;-76
2022/05/13 09:23:58;;;;;;;1.43;0.90;;;23.00;68.30;;;;;;5032354;28;20468;-77
2022/05/13 09:26:27;;;;;;;1.47;0.80;;;23.20;66.50;;;;;;5010246;28;20479;-76
2022/05/13 09:29:08;;;;;;;1.47;0.90;;;23.20;66.90;;;;;;5014084;28;20831;-76
2022/05/13 09:31:38;;;;;;;1.43;0.90;;;23.50;66.80;;;;;;5008493;28;20460;-77
2022/05/13 09:34:28;;;;;;;1.47;0.80;;;23.70;65.70;;;;;;5021410;28;20789;-78
2022/05/13 09:37:04;;;;;;;1.50;0.80;;;23.80;65.00;;;;;;5019100;28;20467;-78
2022/05/13 09:39:37;;;;;;;1.43;0.83;;;23.90;64.20;;;;;;5021536;28;20552;-78
2022/05/13 09:42:26;;;;;;;1.43;0.80;;;23.80;64.10;;;;;;5021283;28;20460;-78
2022/05/13 09:45:11;;;;;;;1.50;0.90;;;23.80;64.50;;;;;;5012117;28;20456;-78
2022/05/13 09:47:39;;;;;;;1.43;0.90;;;23.70;64.90;;;;;;5020487;28;20625;-78
2022/05/13 09:50:18;;;;;;;1.47;0.90;;;23.80;65.30;;;;;;5020168;28;20582;-78
2022/05/13 09:52:46;;;;;;;1.47;0.80;;;24.10;65.00;;;;;;5023039;28;21107;-77
2022/05/13 09:55:24;;;;;;;1.47;0.90;;;24.20;64.30;;;;;;5010620;28;20481;-78
2022/05/13 09:57:54;;;;;;;1.43;0.90;;;24.40;62.60;;;;;;5017246;28;20899;-77
2022/05/13 10:00:25;;;;;;;1.43;0.83;;;24.60;64.00;;;;;;5021020;28;20484;-78
2022/05/13 10:03:08;;;;;;;1.47;0.87;;;24.70;64.30;;;;;;5018162;28;20484;-78
2022/05/13 10:05:36;;;;;;;1.47;0.80;;;24.80;62.50;;;;;;5020799;28;20543;-78
2022/05/13 10:08:07;;;;;;;1.43;0.83;;;24.80;61.80;;;;;;5018082;28;20478;-78
2022/05/13 10:16:14;;;;;;;1.47;0.80;;;24.60;62.30;;;;;;5021755;28;20472;-79
2022/05/13 10:18:50;;;;;;;1.50;1.00;;;24.30;62.70;;;;;;5026031;28;20460;-80
2022/05/13 10:21:22;;;;;;;1.43;0.87;;;24.20;62.80;;;;;;5026713;28;20669;-78
2022/05/13 10:23:55;;;;;;;1.43;0.80;;;24.30;61.30;;;;;;5022379;28;20470;-84
2022/05/13 10:26:26;;;;;;;1.47;0.83;;;24.50;61.30;;;;;;5018973;28;20663;-79
2022/05/13 10:29:00;;;;;;;1.50;0.80;;;24.60;61.80;;;;;;5016515;28;20488;-81
2022/05/13 10:31:42;;;;;;;1.40;0.80;;;24.80;60.10;;;;;;5015172;28;20459;-85
2022/05/13 10:34:21;;;;;;;1.47;0.80;;;25.00;60.10;;;;;;5021051;28;20467;-80
2022/05/13 10:36:55;;;;;;;1.47;0.90;;;24.80;59.40;;;;;;5011703;28;20539;-80
2022/05/13 10:39:30;;;;;;;1.43;0.90;;;24.70;60.20;;;;;;5021492;28;20514;-80
2022/05/13 10:42:00;;;;;;;1.47;0.90;;;24.60;61.00;;;;;;5019002;28;20491;-80
2022/05/13 10:44:39;;;;;;;1.47;0.90;;;24.30;60.30;;;;;;5019118;28;20460;-83
2022/05/13 10:47:14;;;;;;;1.47;0.83;;;24.20;60.40;;;;;;5011189;28;20835;-78
2022/05/13 10:49:44;;;;;;;1.40;0.80;;;24.30;60.30;;;;;;5023700;28;20568;-86
2022/05/13 10:52:28;;;;;;;1.43;0.87;;;24.50;60.50;;;;;;5022546;28;20484;-82
2022/05/13 10:55:00;;;;;;;1.47;0.80;;;24.70;60.20;;;;;;5020600;28;20456;-82
2022/05/13 10:57:35;;;;;;;1.47;0.80;;;24.90;60.20;;;;;;5017458;28;20836;-78
2022/05/13 11:00:12;;;;;;;1.47;0.90;;;25.10;59.00;;;;;;5016505;28;20915;-83
2022/05/13 11:03:14;;;;;;;1.47;0.80;;;25.50;58.00;;;;;;5016963;28;20503;-81
2022/05/13 11:05:53;;;;;;;1.47;0.80;;;25.50;58.50;;;;;;5009985;28;20488;-75
2022/05/13 11:08:25;;;;;;;1.50;0.87;;;25.30;58.90;;;;;;5004032;28;21093;-79
2022/05/13 11:11:01;;;;;;;1.50;0.90;;;25.10;59.90;;;;;;5010964;28;20490;-81
2022/05/13 11:13:51;;;;;;;1.43;0.90;;;24.90;60.20;;;;;;5003309;28;20498;-77
2022/05/13 11:16:39;;;;;;;1.47;0.80;;;24.60;60.80;;;;;;4999234;28;21170;-80
2022/05/13 11:19:14;;;;;;;1.50;0.90;;;24.60;60.70;;;;;;4997723;28;20563;-77
2022/05/13 11:21:48;;;;;;;1.40;0.80;;;24.60;60.80;;;;;;5007745;28;20502;-77
2022/05/13 11:27:20;;;;;;;1.47;0.90;;;24.50;61.10;;;;;;5016668;28;20475;-81
2022/05/13 11:29:54;;;;;;;1.47;0.80;;;24.50;61.40;;;;;;5022722;28;20480;-80
2022/05/13 11:32:28;;;;;;;1.43;0.80;;;24.60;61.30;;;;;;5021385;28;20488;-78
2022/05/13 11:35:18;;;;;;;1.43;0.80;;;24.70;60.70;;;;;;5017947;28;20463;-81
2022/05/13 11:37:55;;;;;;;1.43;0.80;;;24.70;60.60;;;;;;5009237;28;20475;-80
2022/05/13 11:40:29;;;;;;;1.43;0.80;;;24.70;61.30;;;;;;5023392;28;20560;-82
2022/05/13 11:43:20;;;;;;;1.47;0.80;;;24.70;62.10;;;;;;5020574;28;20486;-81
2022/05/13 11:46:14;;;;;;;1.43;0.80;;;24.70;61.40;;;;;;5015675;28;20487;-81
2022/05/13 11:48:45;;;;;;;1.43;0.83;;;24.50;61.10;;;;;;5017912;28;20463;-80
2022/05/13 11:51:17;;;;;;;1.43;0.80;;;24.40;62.20;;;;;;5010215;28;20475;-79
2022/05/13 11:53:46;;;;;;;1.47;0.80;;;24.20;61.80;;;;;;5025976;28;20966;-78
2022/05/13 11:56:17;;;;;;;1.43;0.80;;;24.10;62.30;;;;;;5006467;28;20492;-80
2022/05/13 11:58:53;;;;;;;2.00;1.00;;;24.00;63.00;;;;;;5018515;28;20460;-82
2022/05/13 12:01:57;;;;;;;1.40;0.80;;;24.30;62.00;;;;;;5000009;28;20468;-80
2022/05/13 12:04:58;;;;;;;1.43;0.80;;;24.30;61.40;;;;;;5007763;28;20895;-80
2022/05/13 12:07:31;;;;;;;1.47;0.83;;;24.20;61.70;;;;;;5012232;28;20526;-79
2022/05/13 12:10:00;;;;;;;1.47;0.90;;;24.20;62.10;;;;;;5007147;28;20511;-79
2022/05/13 12:12:53;;;;;;;1.40;0.80;;;24.20;62.00;;;;;;5010369;28;20464;-81
2022/05/13 12:15:35;;;;;;;1.40;0.90;;;24.40;61.90;;;;;;5000474;28;20519;-81
2022/05/13 12:18:12;;;;;;;1.40;0.80;;;24.80;61.90;;;;;;5010660;28;20473;-80
2022/05/13 12:20:50;;;;;;;1.40;0.80;;;25.00;61.50;;;;;;5017505;28;20555;-79
2022/05/13 12:23:23;;;;;;;1.43;0.80;;;25.00;60.60;;;;;;5018510;28;20468;-80
2022/05/13 12:25:55;;;;;;;1.40;0.80;;;24.90;60.70;;;;;;5014728;28;20476;-80
2022/05/13 12:28:59;;;;;;;1.43;0.80;;;25.00;62.10;;;;;;5014872;28;20750;-79
2022/05/13 12:31:37;;;;;;;1.47;0.83;;;25.20;61.60;;;;;;5011585;28;20461;-85
2022/05/13 12:39:46;;;;;;;1.43;0.80;;;25.40;59.80;;;;;;5012737;28;20905;-82
2022/05/13 12:42:24;;;;;;;1.43;0.80;;;25.70;59.40;;;;;;5011188;28;20830;-80
2022/05/13 12:44:59;;;;;;;1.43;0.87;;;25.80;59.90;;;;;;5011881;28;20468;-79
2022/05/13 12:47:29;;;;;;;1.43;0.80;;;25.70;58.80;;;;;;5014005;28;20488;-80
2022/05/13 12:50:00;;;;;;;1.47;0.80;;;25.50;59.50;;;;;;5008564;28;20507;-78
2022/05/13 12:52:44;;;;;;;1.40;0.80;;;25.50;59.20;;;;;;5010022;28;20477;-79
2022/05/13 12:55:18;;;;;;;1.47;0.80;;;25.60;59.10;;;;;;5004978;28;20592;-79
2022/05/13 12:57:47;;;;;;;1.40;0.80;;;25.70;59.00;;;;;;5010471;28;20987;-79
2022/05/13 13:00:19;;;;;;;1.40;0.90;;;25.80;59.10;;;;;;5015692;28;20574;-78
2022/05/13 13:02:50;;;;;;;1.50;0.80;;;26.20;60.00;;;;;;5015874;28;20547;-78
2022/05/13 13:05:22;;;;;;;1.47;0.83;;;26.40;59.00;;;;;;5007569;28;20478;-77
2022/05/13 13:07:54;;;;;;;1.50;0.80;;;26.50;58.70;;;;;;5002971;28;20479;-78
2022/05/13 13:10:22;;;;;;;1.50;0.80;;;26.60;59.20;;;;;;5004200;28;20831;-79
2022/05/13 13:12:59;;;;;;;1.50;0.80;;;26.70;58.50;;;;;;5015255;28;20462;-80
2022/05/13 13:15:31;;;;;;;1.40;0.80;;;26.80;57.90;;;;;;5011289;28;20496;-78
2022/05/13 13:18:00;;;;;;;1.43;0.80;;;26.80;59.00;;;;;;5008873;28;20468;-78
2022/05/13 13:20:30;;;;;;;1.47;0.90;;;26.80;58.40;;;;;;5013445;28;20482;-77
2022/05/13 13:23:02;;;;;;;1.40;0.80;;;26.50;57.70;;;;;;5006772;28;20480;-77
2022/05/13 13:25:31;;;;;;;1.40;0.80;;;26.40;59.20;;;;;;5007204;28;20463;-80
2022/05/13 13:28:01;;;;;;;1.47;0.80;;;26.50;58.80;;;;;;5005714;28;20856;-79
2022/05/13 13:30:34;;;;;;;1.50;0.80;;;26.70;59.10;;;;;;5016899;28;20882;-79
2022/05/13 13:33:06;;;;;;;1.50;0.80;;;26.80;57.90;;;;;;5007574;28;20979;-76
2022/05/13 13:35:38;;;;;;;1.47;0.80;;;26.70;56.80;;;;;;5013733;28;20610;-78